Leolyn, Pennsylvania
Current Conditions -  °F | °C
As of 4:54 AM on Tuesday 21 Oct 2014 (Local Time) from KIPT Reporting Station
Overcast Overcast  
Wind Chill: 50°   Ceiling: 4100
Heat Index: 50°   Visibility: 10mi
Dew Point: 43°   Wind: 3mph
Humidity: 77%   Direction: 340°NNW
Pressure: 29.83"   Gusts: NA
Location:  41.5548°N, 76.8911°W
Report Text: KIPT 210854Z AUTO 34003KT 10SM BKN041 OVC055 10/06 A2983 RMK AO2 SLP102 60000 T01000061 56010
Loading
Personal Weather Stations






























Interactive Weather Map
Tropical Storm Tracking
New forecast layout! Learn more

10-Day Weather Forecast

Advertisements
Track Severe Weather on mobile